createdAt,value
2019-03-06T00:01:50.784Z,8.87
2019-03-06T00:04:18.928Z,10.03
2019-03-06T00:06:47.088Z,9.70
2019-03-06T00:09:15.477Z,9.00
2019-03-06T00:11:43.730Z,9.83
2019-03-06T00:14:11.897Z,10.07
2019-03-06T00:16:40.037Z,10.60
2019-03-06T00:19:08.671Z,10.40
2019-03-06T00:21:36.842Z,9.43
2019-03-06T00:24:04.990Z,9.60
2019-03-06T00:26:33.132Z,9.87
2019-03-06T00:29:01.305Z,11.53
2019-03-06T00:31:29.440Z,9.53
2019-03-06T00:33:57.580Z,11.00
2019-03-06T00:36:26.329Z,12.20
2019-03-06T00:38:54.472Z,11.00
2019-03-06T00:41:30.344Z,13.40
2019-03-06T00:43:58.794Z,12.47
2019-03-06T00:46:27.229Z,13.73
2019-03-06T00:48:55.397Z,14.00
2019-03-06T00:51:23.840Z,13.57
2019-03-06T00:53:51.977Z,13.47
2019-03-06T00:56:20.143Z,15.50
2019-03-06T00:58:48.322Z,14.50
2019-03-06T01:01:16.634Z,15.23
2019-03-06T01:03:44.823Z,15.27
2019-03-06T01:06:12.944Z,15.30
2019-03-06T01:08:41.088Z,15.23
2019-03-06T01:11:09.264Z,15.37
2019-03-06T01:13:37.408Z,15.30
2019-03-06T01:16:05.600Z,15.20
2019-03-06T01:18:33.825Z,15.37
2019-03-06T01:21:01.968Z,14.57
2019-03-06T01:23:30.209Z,15.37
2019-03-06T01:25:58.386Z,14.43
2019-03-06T01:28:26.520Z,14.47
2019-03-06T01:30:54.664Z,15.50
2019-03-06T01:33:30.768Z,14.93
2019-03-06T01:36:17.029Z,14.30
2019-03-06T01:38:58.884Z,14.40
2019-03-06T01:41:29.063Z,13.87
2019-03-06T01:44:13.952Z,13.80
2019-03-06T01:46:42.464Z,15.07
2019-03-06T01:49:10.609Z,13.97
2019-03-06T01:51:38.968Z,12.87
2019-03-06T01:54:07.112Z,13.80
2019-03-06T01:56:35.256Z,14.00
2019-03-06T01:59:03.424Z,13.40
2019-03-06T02:01:31.561Z,14.53
2019-03-06T02:04:00.380Z,12.87
2019-03-06T02:06:28.606Z,13.80
2019-03-06T02:08:56.697Z,14.27
2019-03-06T02:11:24.837Z,14.67
2019-03-06T02:13:53.004Z,14.57
2019-03-06T02:16:21.265Z,13.57
2019-03-06T02:18:49.523Z,14.60
2019-03-06T02:21:17.688Z,13.83
2019-03-06T02:23:45.826Z,12.70
2019-03-06T02:26:14.264Z,13.30
2019-03-06T02:28:42.433Z,13.57
2019-03-06T02:31:10.573Z,13.50
2019-03-06T02:33:38.713Z,13.07
2019-03-06T02:36:06.885Z,13.40
2019-03-06T02:38:35.025Z,14.27
2019-03-06T02:41:03.165Z,12.00
2019-03-06T02:43:31.333Z,13.23
2019-03-06T02:45:59.496Z,12.20
2019-03-06T02:48:27.623Z,11.77
2019-03-06T02:50:55.797Z,11.57
2019-03-06T02:53:24.025Z,12.33
2019-03-06T02:55:52.188Z,11.60
2019-03-06T02:58:22.412Z,11.30
2019-03-06T03:01:10.145Z,10.40
2019-03-06T03:03:52.233Z,11.00
2019-03-06T03:06:22.010Z,11.20
2019-03-06T03:08:50.154Z,10.67
2019-03-06T03:11:18.432Z,10.33
2019-03-06T03:13:46.573Z,11.13
2019-03-06T03:16:15.017Z,10.40
2019-03-06T03:18:43.185Z,10.70
2019-03-06T03:21:11.321Z,9.00
2019-03-06T03:23:39.460Z,9.87
2019-03-06T03:26:07.628Z,10.50
2019-03-06T03:28:35.791Z,10.97
2019-03-06T03:31:04.142Z,9.03
2019-03-06T03:33:32.339Z,9.40
2019-03-06T03:36:00.465Z,10.37
2019-03-06T03:38:28.600Z,11.10
2019-03-06T03:40:56.761Z,9.70
2019-03-06T03:43:24.908Z,9.57
2019-03-06T03:45:53.341Z,9.03
2019-03-06T03:48:21.530Z,9.40
2019-03-06T03:50:49.672Z,8.63
2019-03-06T03:53:17.803Z,9.40
2019-03-06T03:55:45.961Z,8.77
2019-03-06T03:58:14.097Z,8.80
2019-03-06T04:00:42.237Z,9.20
2019-03-06T04:03:10.400Z,8.83
2019-03-06T04:05:38.543Z,7.50
2019-03-06T04:08:06.677Z,7.83
2019-03-06T04:10:34.841Z,7.93
2019-03-06T04:13:03.078Z,7.87
2019-03-06T04:15:31.219Z,7.30
2019-03-06T04:17:59.414Z,7.17
2019-03-06T04:20:27.644Z,7.40
2019-03-06T04:22:55.804Z,7.30
2019-03-06T04:25:23.979Z,6.23
2019-03-06T04:27:52.479Z,5.73
2019-03-06T04:30:20.626Z,6.27
2019-03-06T04:32:48.791Z,6.60
2019-03-06T04:35:16.934Z,6.23
2019-03-06T04:37:45.068Z,5.80
2019-03-06T04:40:13.996Z,5.67
2019-03-06T04:42:43.566Z,5.73
2019-03-06T04:45:18.152Z,5.40
2019-03-06T04:47:46.290Z,4.47
2019-03-06T04:50:14.908Z,5.10
2019-03-06T04:52:43.669Z,4.77
2019-03-06T04:55:13.241Z,4.73
2019-03-06T04:57:41.384Z,4.40
2019-03-06T05:00:11.169Z,4.37
2019-03-06T05:02:39.313Z,4.53
2019-03-06T05:05:07.687Z,4.70
2019-03-06T05:07:35.848Z,4.57
2019-03-06T05:10:05.365Z,4.17
2019-03-06T05:12:33.770Z,3.80
2019-03-06T05:15:01.943Z,4.10
2019-03-06T05:17:38.177Z,3.87
2019-03-06T05:20:07.108Z,4.33
2019-03-06T05:22:35.277Z,4.07
2019-03-06T05:25:04.076Z,3.60
2019-03-06T05:27:32.236Z,4.07
2019-03-06T05:30:00.695Z,3.60
2019-03-06T05:32:29.691Z,3.27
2019-03-06T05:34:59.314Z,3.23
2019-03-06T05:37:32.089Z,3.30
2019-03-06T05:40:00.283Z,4.27
2019-03-06T05:42:29.438Z,3.17
2019-03-06T05:44:57.725Z,3.30
2019-03-06T05:47:25.857Z,3.30
2019-03-06T05:49:54.021Z,3.20
2019-03-06T05:52:22.156Z,3.47
2019-03-06T05:54:50.287Z,3.30
2019-03-06T05:57:18.732Z,3.27
2019-03-06T05:59:46.897Z,3.37
2019-03-06T06:02:15.038Z,3.03
2019-03-06T06:04:43.200Z,3.27
2019-03-06T06:07:11.432Z,3.80
2019-03-06T06:09:39.669Z,2.53
2019-03-06T06:12:07.838Z,2.97
2019-03-06T06:14:35.977Z,2.87
2019-03-06T06:17:04.112Z,2.63
2019-03-06T06:19:32.271Z,2.90
2019-03-06T06:22:18.880Z,2.53
2019-03-06T06:24:47.043Z,2.30
2019-03-06T06:27:15.188Z,3.10
2019-03-06T06:29:43.518Z,2.70
2019-03-06T06:32:11.676Z,2.50
2019-03-06T06:34:39.807Z,2.53
2019-03-06T06:37:07.944Z,1.90
2019-03-06T06:39:36.232Z,2.27
2019-03-06T06:42:04.371Z,2.10
2019-03-06T06:44:32.496Z,2.37
2019-03-06T06:47:00.661Z,2.57
2019-03-06T06:49:28.801Z,2.57
2019-03-06T06:52:16.500Z,1.70
2019-03-06T06:54:49.184Z,1.90
2019-03-06T06:57:19.212Z,1.80
2019-03-06T06:59:51.674Z,2.17
2019-03-06T07:02:51.944Z,2.50
2019-03-06T07:05:30.941Z,4.07
2019-03-06T07:08:16.976Z,1.97
2019-03-06T07:10:46.784Z,1.90
2019-03-06T07:13:32.992Z,1.93
2019-03-06T07:16:19.243Z,1.93
2019-03-06T07:19:05.344Z,1.70
2019-03-06T07:21:35.649Z,2.03
2019-03-06T07:24:08.309Z,1.77
2019-03-06T07:26:50.271Z,1.97
2019-03-06T07:29:26.132Z,1.97
2019-03-06T07:31:58.409Z,2.13
2019-03-06T07:34:34.392Z,1.60
2019-03-06T07:37:04.200Z,1.30
2019-03-06T07:39:33.604Z,1.40
2019-03-06T07:42:12.747Z,1.93
2019-03-06T07:44:45.585Z,1.80
2019-03-06T07:47:15.356Z,1.63
2019-03-06T07:49:48.863Z,2.07
2019-03-06T07:52:18.641Z,1.70
2019-03-06T07:54:48.404Z,1.87
2019-03-06T07:57:18.212Z,1.80
2019-03-06T07:59:46.340Z,1.70
2019-03-06T08:02:25.309Z,1.97
2019-03-06T08:04:54.116Z,1.50
2019-03-06T08:07:22.312Z,1.70
2019-03-06T08:09:51.306Z,1.40
2019-03-06T08:12:37.324Z,1.90
2019-03-06T08:15:25.336Z,1.33
2019-03-06T08:18:04.112Z,1.70
2019-03-06T08:20:33.921Z,1.40
2019-03-06T08:23:12.564Z,1.70
2019-03-06T08:25:46.971Z,1.80
2019-03-06T08:28:15.117Z,2.13
2019-03-06T08:30:44.979Z,2.10
2019-03-06T08:33:18.260Z,1.53
2019-03-06T08:35:42.927Z,1.70
2019-03-06T08:38:11.064Z,1.80
2019-03-06T08:40:39.435Z,1.93
2019-03-06T08:43:07.556Z,1.83
2019-03-06T08:45:48.945Z,2.03
2019-03-06T08:48:33.951Z,2.20
2019-03-06T08:51:06.737Z,1.87
2019-03-06T08:53:42.651Z,1.90
2019-03-06T08:56:27.416Z,1.80
2019-03-06T08:58:57.191Z,2.20
2019-03-06T09:01:37.452Z,1.50
2019-03-06T09:04:23.492Z,2.20
2019-03-06T09:07:05.344Z,2.23
2019-03-06T09:09:51.424Z,1.83
2019-03-06T09:12:24.004Z,2.00
2019-03-06T09:15:05.798Z,2.30
2019-03-06T09:17:41.944Z,2.10
2019-03-06T09:20:11.848Z,1.87
2019-03-06T09:22:58.162Z,2.27
2019-03-06T09:25:33.773Z,2.57
2019-03-06T09:28:12.541Z,1.67
2019-03-06T09:30:51.297Z,2.50
2019-03-06T09:33:23.869Z,2.10
2019-03-06T09:35:53.937Z,2.00
2019-03-06T09:38:35.653Z,1.77
2019-03-06T09:41:14.013Z,2.50
2019-03-06T09:43:59.081Z,2.30
2019-03-06T09:46:28.869Z,2.20
2019-03-06T09:49:15.324Z,2.40
2019-03-06T09:51:48.195Z,2.33
2019-03-06T09:54:20.920Z,2.83
2019-03-06T09:56:53.573Z,2.37
2019-03-06T09:59:26.376Z,2.40
2019-03-06T10:01:56.151Z,2.63
2019-03-06T10:04:31.920Z,2.57
2019-03-06T10:07:04.511Z,2.83
2019-03-06T10:09:34.317Z,2.37
2019-03-06T10:12:07.216Z,2.37
2019-03-06T10:14:37.018Z,2.50
2019-03-06T10:17:09.238Z,2.53
2019-03-06T10:19:57.584Z,2.60
2019-03-06T10:22:30.266Z,2.60
2019-03-06T10:25:01.723Z,2.60
2019-03-06T10:27:30.102Z,2.80
2019-03-06T10:29:58.203Z,2.20
2019-03-06T10:32:26.364Z,2.37
2019-03-06T10:34:55.179Z,3.10
2019-03-06T10:37:23.624Z,3.10
2019-03-06T10:39:51.774Z,2.43
2019-03-06T10:42:20.375Z,2.30
2019-03-06T10:44:49.380Z,2.87
2019-03-06T10:47:17.701Z,2.43
2019-03-06T10:49:45.838Z,2.40
2019-03-06T10:52:14.215Z,2.40
2019-03-06T10:54:44.850Z,2.93
2019-03-06T10:57:12.512Z,2.17
2019-03-06T10:59:40.840Z,2.63
2019-03-06T11:02:09.050Z,2.40
2019-03-06T11:04:45.476Z,2.37
2019-03-06T11:07:13.768Z,2.20
2019-03-06T11:09:42.076Z,2.77
2019-03-06T11:12:11.337Z,2.47
2019-03-06T11:14:39.506Z,3.20
2019-03-06T11:17:07.841Z,2.60
2019-03-06T11:19:36.448Z,2.77
2019-03-06T11:22:04.800Z,3.03
2019-03-06T11:24:32.932Z,2.37
2019-03-06T11:27:01.337Z,2.80
2019-03-06T11:29:29.655Z,3.23
2019-03-06T11:31:57.780Z,3.03
2019-03-06T11:34:25.918Z,3.40
2019-03-06T11:36:54.078Z,3.10
2019-03-06T11:39:22.611Z,2.60
2019-03-06T11:41:50.763Z,3.17
2019-03-06T11:44:19.101Z,3.70
2019-03-06T11:46:47.440Z,3.20
2019-03-06T11:49:15.574Z,2.90
2019-03-06T11:51:43.746Z,3.20
2019-03-06T11:54:12.078Z,3.00
2019-03-06T11:56:40.384Z,3.03
2019-03-06T11:59:08.551Z,3.20
2019-03-06T12:01:36.752Z,3.40
2019-03-06T12:04:04.961Z,2.90
2019-03-06T12:06:33.124Z,3.20
2019-03-06T12:09:01.265Z,2.90
2019-03-06T12:11:29.700Z,3.00
2019-03-06T12:14:00.010Z,3.07
2019-03-06T12:16:28.265Z,2.40
2019-03-06T12:18:56.392Z,2.77
2019-03-06T12:21:24.556Z,3.50
2019-03-06T12:23:52.688Z,2.87
2019-03-06T12:26:20.833Z,3.63
2019-03-06T12:28:49.001Z,2.83
2019-03-06T12:31:17.274Z,3.23
2019-03-06T12:33:45.428Z,3.40
2019-03-06T12:36:13.597Z,3.07
2019-03-06T12:38:41.741Z,3.73
2019-03-06T12:41:09.877Z,3.07
2019-03-06T12:43:38.045Z,3.30
2019-03-06T12:46:22.882Z,3.30
2019-03-06T12:48:47.306Z,3.80
2019-03-06T12:51:15.445Z,4.13
2019-03-06T12:53:43.826Z,3.27
2019-03-06T12:56:12.108Z,3.50
2019-03-06T12:58:40.276Z,3.03
2019-03-06T13:01:08.649Z,3.77
2019-03-06T13:03:36.808Z,3.40
2019-03-06T13:06:04.944Z,3.60
2019-03-06T13:08:33.081Z,3.30
2019-03-06T13:11:01.276Z,3.30
2019-03-06T13:13:35.497Z,3.17
2019-03-06T13:15:59.257Z,3.67
2019-03-06T13:18:27.445Z,3.33
2019-03-06T13:20:55.716Z,3.50
2019-03-06T13:23:23.922Z,2.90
2019-03-06T13:25:52.295Z,3.17
2019-03-06T13:28:20.453Z,3.50
2019-03-06T13:30:50.225Z,2.90
2019-03-06T13:33:43.848Z,2.73
2019-03-06T13:36:12.420Z,3.10
2019-03-06T13:38:40.749Z,3.50
2019-03-06T13:41:08.984Z,3.10
2019-03-06T13:43:37.120Z,2.80
2019-03-06T13:46:08.124Z,3.07
2019-03-06T13:48:36.271Z,3.00
2019-03-06T13:51:04.804Z,3.10
2019-03-06T13:53:33.297Z,3.00
2019-03-06T13:56:01.475Z,3.20
2019-03-06T13:58:29.595Z,2.67
2019-03-06T14:00:57.736Z,3.40
2019-03-06T14:03:25.928Z,3.00
2019-03-06T14:05:54.100Z,3.10
2019-03-06T14:08:22.236Z,3.00
2019-03-06T14:10:50.406Z,3.07
2019-03-06T14:13:18.544Z,2.40
2019-03-06T14:15:53.681Z,2.90
2019-03-06T14:18:16.986Z,2.70
2019-03-06T14:20:45.485Z,3.10
2019-03-06T14:23:13.714Z,2.80
2019-03-06T14:25:41.883Z,3.83
2019-03-06T14:28:10.380Z,3.23
2019-03-06T14:30:41.166Z,3.10
2019-03-06T14:33:09.447Z,3.13
2019-03-06T14:35:37.572Z,3.83
2019-03-06T14:38:07.388Z,3.40
2019-03-06T14:40:35.929Z,2.97
2019-03-06T14:43:05.684Z,3.03
2019-03-06T14:45:33.827Z,3.50
2019-03-06T14:48:02.160Z,3.33
2019-03-06T14:50:30.297Z,3.00
2019-03-06T14:52:58.836Z,3.10
2019-03-06T14:55:26.997Z,3.30
2019-03-06T14:57:55.132Z,2.97
2019-03-06T15:00:23.275Z,3.00
2019-03-06T15:02:51.441Z,2.87
2019-03-06T15:05:19.977Z,3.13
2019-03-06T15:07:48.113Z,2.80
2019-03-06T15:10:16.849Z,2.70
2019-03-06T15:12:45.060Z,3.10
2019-03-06T15:15:16.753Z,3.27
2019-03-06T15:17:44.928Z,2.93
2019-03-06T15:20:17.641Z,3.00
2019-03-06T15:22:46.800Z,2.60
2019-03-06T15:25:16.338Z,3.13
2019-03-06T15:27:44.469Z,2.47
2019-03-06T15:30:13.976Z,2.67
2019-03-06T15:32:42.270Z,2.93
2019-03-06T15:35:11.172Z,3.70
2019-03-06T15:37:40.700Z,3.53
2019-03-06T15:40:11.329Z,3.20
2019-03-06T15:42:40.936Z,3.30
2019-03-06T15:45:11.516Z,3.10
2019-03-06T15:47:39.848Z,3.13
2019-03-06T15:50:09.813Z,3.07
2019-03-06T15:52:37.954Z,3.10
2019-03-06T15:55:08.056Z,2.93
2019-03-06T15:57:36.200Z,2.57
2019-03-06T16:00:10.315Z,3.10
2019-03-06T16:02:38.477Z,3.80
2019-03-06T16:05:08.270Z,2.80
2019-03-06T16:07:36.402Z,3.20
2019-03-06T16:10:05.750Z,2.77
2019-03-06T16:12:33.876Z,3.17
2019-03-06T16:15:02.132Z,3.20
2019-03-06T16:17:30.364Z,3.07
2019-03-06T16:20:01.030Z,2.80
2019-03-06T16:22:29.172Z,3.50
2019-03-06T16:24:57.533Z,2.93
2019-03-06T16:27:25.676Z,3.20
2019-03-06T16:29:53.880Z,3.33
2019-03-06T16:32:22.059Z,3.47
2019-03-06T16:34:51.637Z,2.93
2019-03-06T16:37:19.774Z,3.20
2019-03-06T16:39:47.932Z,3.43
2019-03-06T16:42:16.148Z,3.85
2019-03-06T16:44:44.494Z,3.17
2019-03-06T16:47:12.724Z,3.37
2019-03-06T16:49:41.397Z,3.70
2019-03-06T16:52:09.540Z,3.33
2019-03-06T16:54:37.718Z,3.97
2019-03-06T16:57:05.855Z,3.80
2019-03-06T16:59:35.106Z,3.87
2019-03-06T17:02:03.283Z,3.53
2019-03-06T17:04:31.872Z,3.60
2019-03-06T17:07:00.224Z,3.63
2019-03-06T17:09:31.231Z,4.10
2019-03-06T17:11:59.364Z,3.23
2019-03-06T17:14:27.510Z,3.40
2019-03-06T17:16:55.698Z,3.83
2019-03-06T17:19:24.234Z,4.30
2019-03-06T17:21:52.791Z,3.47
2019-03-06T17:24:21.074Z,4.13
2019-03-06T17:26:49.276Z,4.23
2019-03-06T17:29:17.409Z,3.60
2019-03-06T17:31:45.613Z,4.30
2019-03-06T17:34:14.240Z,4.13
2019-03-06T17:36:42.616Z,3.77
2019-03-06T17:39:10.786Z,3.17
2019-03-06T17:41:38.920Z,4.10
2019-03-06T17:44:07.063Z,4.40
2019-03-06T17:46:35.248Z,4.00
2019-03-06T17:49:03.380Z,4.03
2019-03-06T17:51:33.153Z,4.50
2019-03-06T17:54:01.624Z,4.20
2019-03-06T17:56:29.885Z,3.97
2019-03-06T17:58:58.025Z,3.97
2019-03-06T18:01:26.199Z,3.70
2019-03-06T18:04:08.005Z,4.03
2019-03-06T18:06:37.787Z,4.07
2019-03-06T18:09:06.046Z,4.03
2019-03-06T18:11:34.181Z,3.93
2019-03-06T18:14:02.346Z,4.50
2019-03-06T18:16:30.500Z,4.03
2019-03-06T18:19:00.665Z,3.83
2019-03-06T18:21:28.868Z,4.27
2019-03-06T18:23:57.859Z,3.93
2019-03-06T18:26:26.142Z,4.17
2019-03-06T18:28:54.715Z,3.40
2019-03-06T18:31:22.948Z,4.00
2019-03-06T18:33:51.307Z,4.60
2019-03-06T18:36:19.476Z,3.57
2019-03-06T18:38:48.518Z,3.97
2019-03-06T18:41:16.662Z,4.33
2019-03-06T18:43:44.824Z,4.17
2019-03-06T18:46:12.960Z,4.20
2019-03-06T18:48:41.098Z,3.87
2019-03-06T18:51:09.256Z,4.17
2019-03-06T18:53:37.395Z,3.87
2019-03-06T18:56:05.801Z,4.60
2019-03-06T18:58:34.208Z,3.90
2019-03-06T19:01:06.927Z,4.23
2019-03-06T19:03:35.120Z,4.30
2019-03-06T19:06:03.349Z,4.47
2019-03-06T19:08:31.808Z,4.33
2019-03-06T19:11:00.024Z,4.63
2019-03-06T19:13:28.196Z,4.70
2019-03-06T19:15:56.340Z,4.57
2019-03-06T19:18:24.740Z,4.92
2019-03-06T19:20:53.503Z,5.27
2019-03-06T19:23:21.631Z,4.50
2019-03-06T19:25:49.778Z,4.70
2019-03-06T19:28:17.942Z,5.07
2019-03-06T19:30:46.077Z,4.37
2019-03-06T19:33:14.218Z,5.40
2019-03-06T19:35:42.399Z,4.50
2019-03-06T19:38:10.636Z,5.20
2019-03-06T19:40:39.081Z,5.67
2019-03-06T19:43:07.253Z,4.20
2019-03-06T19:45:35.610Z,4.27
2019-03-06T19:48:03.892Z,5.17
2019-03-06T19:50:32.182Z,4.67
2019-03-06T19:53:00.590Z,4.53
2019-03-06T19:55:28.734Z,4.80
2019-03-06T19:57:57.772Z,4.80
2019-03-06T20:00:26.891Z,5.47
2019-03-06T20:02:56.836Z,4.90
2019-03-06T20:05:26.498Z,4.83
2019-03-06T20:07:54.636Z,4.47
2019-03-06T20:10:22.877Z,4.47
2019-03-06T20:13:10.476Z,4.40
2019-03-06T20:15:39.116Z,4.87
2019-03-06T20:18:07.261Z,4.10
2019-03-06T20:20:35.421Z,4.73
2019-03-06T20:23:03.633Z,4.83
2019-03-06T20:25:31.826Z,4.97
2019-03-06T20:28:00.349Z,5.23
2019-03-06T20:30:28.493Z,4.63
2019-03-06T20:32:57.213Z,4.60
2019-03-06T20:35:25.664Z,4.90
2019-03-06T20:37:53.952Z,4.93
2019-03-06T20:40:22.358Z,4.93
2019-03-06T20:42:50.538Z,5.53
2019-03-06T20:45:18.861Z,5.27
2019-03-06T20:47:49.880Z,5.27
2019-03-06T20:50:19.446Z,5.33
2019-03-06T20:52:47.666Z,5.10
2019-03-06T20:55:17.624Z,5.17
2019-03-06T20:57:45.773Z,5.60
2019-03-06T21:00:15.540Z,6.17
2019-03-06T21:02:43.688Z,6.10
2019-03-06T21:05:11.861Z,6.40
2019-03-06T21:07:45.046Z,5.67
2019-03-06T21:10:11.352Z,5.57
2019-03-06T21:12:39.520Z,6.10
2019-03-06T21:15:09.235Z,5.87
2019-03-06T21:17:37.371Z,6.20
2019-03-06T21:20:09.499Z,5.60
2019-03-06T21:22:37.620Z,5.50
2019-03-06T21:25:07.138Z,5.60
2019-03-06T21:27:35.292Z,6.07
2019-03-06T21:30:04.968Z,6.00
2019-03-06T21:32:33.307Z,6.20
2019-03-06T21:35:01.474Z,5.80
2019-03-06T21:37:29.613Z,6.10
2019-03-06T21:39:57.982Z,5.67
2019-03-06T21:42:26.257Z,5.60
2019-03-06T21:44:54.397Z,5.63
2019-03-06T21:47:22.948Z,6.13
2019-03-06T21:49:51.121Z,5.17
2019-03-06T21:52:19.253Z,5.93
2019-03-06T21:54:47.441Z,6.10
2019-03-06T21:57:15.610Z,5.77
2019-03-06T21:59:43.779Z,6.13
2019-03-06T22:02:11.922Z,5.93
2019-03-06T22:04:40.300Z,6.23
2019-03-06T22:07:08.444Z,6.37
2019-03-06T22:09:36.641Z,6.30
2019-03-06T22:12:04.802Z,6.07
2019-03-06T22:14:32.944Z,6.27
2019-03-06T22:17:01.073Z,6.20
2019-03-06T22:19:29.245Z,6.30
2019-03-06T22:21:59.088Z,6.10
2019-03-06T22:24:27.208Z,6.87
2019-03-06T22:26:55.370Z,7.27
2019-03-06T22:29:23.503Z,6.47
2019-03-06T22:31:51.645Z,7.37
2019-03-06T22:34:19.816Z,7.53
2019-03-06T22:36:48.355Z,7.47
2019-03-06T22:39:17.776Z,8.20
2019-03-06T22:41:46.252Z,7.63
2019-03-06T22:44:14.389Z,7.70
2019-03-06T22:46:42.557Z,7.30
2019-03-06T22:49:10.852Z,8.20
2019-03-06T22:51:39.084Z,8.00
2019-03-06T22:54:07.232Z,9.07
2019-03-06T22:56:35.397Z,8.37
2019-03-06T22:59:03.546Z,7.77
2019-03-06T23:01:31.748Z,8.77
2019-03-06T23:03:59.921Z,8.10
2019-03-06T23:06:28.063Z,9.65
2019-03-06T23:08:56.200Z,8.23
2019-03-06T23:11:24.364Z,8.70
2019-03-06T23:13:52.503Z,8.57
2019-03-06T23:16:20.699Z,8.90
2019-03-06T23:18:48.817Z,9.30
2019-03-06T23:21:16.951Z,8.53
2019-03-06T23:23:45.090Z,8.30
2019-03-06T23:26:13.254Z,8.03
2019-03-06T23:28:41.404Z,8.00
2019-03-06T23:31:09.536Z,8.67
2019-03-06T23:33:37.705Z,8.00
2019-03-06T23:36:05.976Z,8.80
2019-03-06T23:38:34.508Z,8.13
2019-03-06T23:41:02.682Z,6.70
2019-03-06T23:43:31.113Z,6.73
2019-03-06T23:46:00.893Z,7.53
2019-03-06T23:48:29.068Z,7.67
2019-03-06T23:50:57.681Z,7.57
2019-03-06T23:53:27.454Z,7.00
2019-03-06T23:55:55.620Z,7.40
2019-03-06T23:58:23.763Z,7.27
